Fort Worth - NOAA's Hourly Summary for Monday, August 24, 2026
Hour Temp
(f)
RH
(%)
Solar Rad.
(MJ/m2)
Rainfall
(in)
Wind
(mph)
Battery
(volts)
8/24/2026 12:00 AM 93 29 0 0 2.65 0
8/24/2026 1:00 AM 93 29 0 0 6.42 0
8/24/2026 2:00 AM 93 29 0 0 4.75 0
8/24/2026 3:00 AM 90 31 0 0 3.64 0
8/24/2026 4:00 AM 89 33 0 0 2.3 0
8/24/2026 5:00 AM 87 35 0 0 2.92 0
8/24/2026 6:00 AM 86 36 0 0 2.97 0
8/24/2026 7:00 AM 86 38 0.07 0 0.91 0
8/24/2026 8:00 AM 88 35 0.58 0 3.13 0
8/24/2026 9:00 AM 91 32 1.22 0 3.64 0
8/24/2026 10:00 AM 95 26 1.82 0 5.37 0
8/24/2026 11:00 AM 99 22 2.31 0 3.65 0
8/24/2026 12:00 PM 102 20 2.64 0 5.44 0
8/24/2026 1:00 PM 105 17 2.72 0 6.23 0
8/24/2026 2:00 PM 106 16 2.39 0 4.05 0
8/24/2026 3:00 PM 108 14 2.58 0 6.36 0
8/24/2026 4:00 PM 109 12 2.19 0 3.99 0
8/24/2026 5:00 PM 108 11 1.64 0 5.51 0
8/24/2026 6:00 PM 107 11 0.9 0 5.99 0
8/24/2026 7:00 PM 104 12 0.12 0 5.25 0
8/24/2026 8:00 PM 101 14 0.01 0 3.56 0
8/24/2026 9:00 PM 98 16 0 0 3.81 0
8/24/2026 10:00 PM 96 17 0 0 3.47 0
8/24/2026 11:00 PM 94 20 0 0 3.72 0
Data Summary 97 23 21.19 0.00 4.16 0.00